CND5989 EHAM-TNCC
Flight info
| Callsign | CND5989 |
|---|---|
| Flight time | N/A |
| Altitude | 38000 |
| Route | IDRID L980 MANGO DCT ENHAQ DCT GAJIT DCT GAPLI/M084F380 DCT OMOKO DCT 48N015W 47N020W 43N030W/M084F400 37N040W 31N050W DCT FIVZE DCT OPAUL/N0482F400 L327 SCAPA SCAPA1B |
| Aircraft | A359/H-SDE2E3GHIJ3J4J5LM1ORWXY/LB1D1 |
Departure
| Time | N/A |
|---|---|
| Airport | Amsterdam Airport Schiphol (EHAM) |
Arrival
| Time | 2026-04-20 06:37 |
|---|---|
| Airport | Hato International Airport (TNCC) |
| Time | Latitude | Longitude | Altitude | Speed | Heading |
|---|---|---|---|---|---|
| 2026-04-20 06:16 | 13.57459 | -68.65535 | 25188 ft | 418 kts | 208° |
| 2026-04-20 06:16 | 13.54850 | -68.66854 | 24679 ft | 416 kts | 208° |
| 2026-04-20 06:16 | 13.52257 | -68.68165 | 24178 ft | 413 kts | 208° |
| 2026-04-20 06:16 | 13.49711 | -68.69451 | 23675 ft | 411 kts | 208° |
| 2026-04-20 06:17 | 13.47152 | -68.70744 | 23168 ft | 408 kts | 208° |
| 2026-04-20 06:17 | 13.44608 | -68.72030 | 22682 ft | 406 kts | 208° |
| 2026-04-20 06:17 | 13.42071 | -68.73311 | 22164 ft | 403 kts | 208° |
| 2026-04-20 06:17 | 13.39590 | -68.74564 | 21674 ft | 401 kts | 208° |
| 2026-04-20 06:18 | 13.37083 | -68.75829 | 21156 ft | 399 kts | 208° |
| 2026-04-20 06:18 | 13.34587 | -68.77088 | 20683 ft | 397 kts | 208° |
| 2026-04-20 06:18 | 13.32134 | -68.78324 | 20191 ft | 395 kts | 207° |
| 2026-04-20 06:18 | 13.29678 | -68.79563 | 19701 ft | 392 kts | 207° |
| 2026-04-20 06:19 | 13.27232 | -68.80797 | 19215 ft | 389 kts | 207° |
| 2026-04-20 06:19 | 13.24810 | -68.82020 | 18730 ft | 387 kts | 207° |
| 2026-04-20 06:19 | 13.22400 | -68.83236 | 18245 ft | 384 kts | 207° |
| 2026-04-20 06:19 | 13.20006 | -68.84442 | 17765 ft | 381 kts | 207° |
| 2026-04-20 06:20 | 13.17660 | -68.85624 | 17299 ft | 378 kts | 207° |
| 2026-04-20 06:20 | 13.15304 | -68.86810 | 16821 ft | 375 kts | 207° |
| 2026-04-20 06:20 | 13.12965 | -68.87988 | 16341 ft | 373 kts | 207° |
| 2026-04-20 06:20 | 13.10648 | -68.89155 | 15856 ft | 370 kts | 206° |
| 2026-04-20 06:21 | 13.08348 | -68.90312 | 15377 ft | 367 kts | 206° |
| 2026-04-20 06:21 | 13.06060 | -68.91464 | 14899 ft | 364 kts | 206° |
| 2026-04-20 06:21 | 13.03824 | -68.92589 | 14427 ft | 361 kts | 206° |
| 2026-04-20 06:21 | 13.01562 | -68.93727 | 13951 ft | 358 kts | 206° |
| 2026-04-20 06:22 | 12.99327 | -68.94851 | 13469 ft | 356 kts | 206° |
| 2026-04-20 06:22 | 12.97137 | -68.95952 | 12997 ft | 353 kts | 206° |
| 2026-04-20 06:22 | 12.94934 | -68.97060 | 12526 ft | 350 kts | 206° |
| 2026-04-20 06:22 | 12.92756 | -68.98154 | 12053 ft | 347 kts | 206° |
| 2026-04-20 06:23 | 12.90612 | -68.99233 | 11591 ft | 345 kts | 206° |
| 2026-04-20 06:23 | 12.88461 | -69.00315 | 11136 ft | 342 kts | 206° |
| 2026-04-20 06:23 | 12.86325 | -69.01389 | 10653 ft | 340 kts | 205° |
| 2026-04-20 06:23 | 12.84229 | -69.02441 | 10256 ft | 336 kts | 205° |
| 2026-04-20 06:24 | 12.82166 | -69.03476 | 10109 ft | 322 kts | 205° |
| 2026-04-20 06:24 | 12.80212 | -69.04455 | 9970 ft | 308 kts | 205° |
| 2026-04-20 06:24 | 12.78307 | -69.05413 | 9753 ft | 301 kts | 205° |
| 2026-04-20 06:24 | 12.76433 | -69.06353 | 9487 ft | 301 kts | 205° |
| 2026-04-20 06:25 | 12.74547 | -69.07299 | 9233 ft | 300 kts | 205° |
| 2026-04-20 06:25 | 12.72674 | -69.08238 | 9020 ft | 299 kts | 205° |
| 2026-04-20 06:25 | 12.70827 | -69.09162 | 8780 ft | 298 kts | 204° |
| 2026-04-20 06:25 | 12.68968 | -69.10093 | 8537 ft | 297 kts | 205° |
| 2026-04-20 06:26 | 12.67111 | -69.11026 | 8312 ft | 296 kts | 204° |
| 2026-04-20 06:26 | 12.65263 | -69.11954 | 8084 ft | 295 kts | 204° |
| 2026-04-20 06:26 | 12.63423 | -69.12877 | 7853 ft | 293 kts | 204° |
| 2026-04-20 06:26 | 12.61587 | -69.13796 | 7627 ft | 293 kts | 204° |
| 2026-04-20 06:27 | 12.59763 | -69.14710 | 7399 ft | 292 kts | 204° |
| 2026-04-20 06:27 | 12.57940 | -69.15623 | 7173 ft | 291 kts | 204° |
| 2026-04-20 06:27 | 12.56128 | -69.16490 | 6953 ft | 289 kts | 199° |
| 2026-04-20 06:27 | 12.54178 | -69.16878 | 6709 ft | 285 kts | 179° |
| 2026-04-20 06:28 | 12.52202 | -69.16829 | 6487 ft | 282 kts | 174° |
| 2026-04-20 06:28 | 12.50235 | -69.16700 | 6269 ft | 281 kts | 174° |
| 2026-04-20 06:28 | 12.48310 | -69.16577 | 6043 ft | 280 kts | 174° |
| 2026-04-20 06:28 | 12.46368 | -69.16456 | 5794 ft | 279 kts | 174° |
| 2026-04-20 06:29 | 12.44433 | -69.16336 | 5548 ft | 278 kts | 174° |
| 2026-04-20 06:29 | 12.42503 | -69.16224 | 5293 ft | 277 kts | 174° |
| 2026-04-20 06:29 | 12.40587 | -69.16107 | 5049 ft | 275 kts | 174° |
| 2026-04-20 06:29 | 12.38672 | -69.15990 | 4899 ft | 276 kts | 173° |
| 2026-04-20 06:30 | 12.36772 | -69.15875 | 4750 ft | 272 kts | 174° |
| 2026-04-20 06:30 | 12.34866 | -69.15767 | 4507 ft | 274 kts | 174° |
| 2026-04-20 06:30 | 12.32990 | -69.15664 | 4207 ft | 273 kts | 174° |
| 2026-04-20 06:30 | 12.31105 | -69.15563 | 3980 ft | 265 kts | 174° |
| 2026-04-20 06:31 | 12.29305 | -69.15466 | 3837 ft | 254 kts | 174° |
| 2026-04-20 06:31 | 12.27577 | -69.15371 | 3692 ft | 243 kts | 174° |
| 2026-04-20 06:31 | 12.25923 | -69.15278 | 3552 ft | 232 kts | 174° |
| 2026-04-20 06:31 | 12.24372 | -69.15109 | 3419 ft | 219 kts | 161° |
| 2026-04-20 06:32 | 12.23163 | -69.14343 | 3284 ft | 198 kts | 124° |
| 2026-04-20 06:32 | 12.22559 | -69.13153 | 3208 ft | 180 kts | 105° |
| 2026-04-20 06:32 | 12.22283 | -69.11949 | 3038 ft | 170 kts | 100° |
| 2026-04-20 06:32 | 12.22051 | -69.10787 | 2850 ft | 163 kts | 98° |
| 2026-04-20 06:33 | 12.21828 | -69.09677 | 2610 ft | 159 kts | 101° |
| 2026-04-20 06:33 | 12.21523 | -69.08586 | 2308 ft | 159 kts | 106° |
| 2026-04-20 06:33 | 12.21227 | -69.07536 | 2071 ft | 151 kts | 97° |
| 2026-04-20 06:33 | 12.21113 | -69.06480 | 1919 ft | 149 kts | 97° |
| 2026-04-20 06:34 | 12.20867 | -69.05475 | 1745 ft | 141 kts | 104° |
| 2026-04-20 06:34 | 12.20632 | -69.04536 | 1539 ft | 132 kts | 98° |
| 2026-04-20 06:34 | 12.20309 | -69.02713 | 1245 ft | 132 kts | 102° |
| 2026-04-20 06:35 | 12.20094 | -69.01795 | 1047 ft | 133 kts | 100° |
| 2026-04-20 06:35 | 12.19911 | -69.00881 | 848 ft | 131 kts | 100° |
| 2026-04-20 06:35 | 12.19720 | -68.99966 | 684 ft | 132 kts | 101° |
| 2026-04-20 06:35 | 12.19524 | -68.99048 | 537 ft | 133 kts | 102° |
| 2026-04-20 06:36 | 12.19337 | -68.98129 | 350 ft | 132 kts | 101° |
| 2026-04-20 06:36 | 12.19142 | -68.97208 | 160 ft | 133 kts | 101° |
| 2026-04-20 06:36 | 12.18954 | -68.96295 | 52 ft | 128 kts | 101° |
| 2026-04-20 06:36 | 12.18784 | -68.95482 | 47 ft | 113 kts | 103° |
| 2026-04-20 06:37 | 12.18649 | -68.94832 | 51 ft | 60 kts | 102° |
| 2026-04-20 06:37 | 12.18594 | -68.94582 | 53 ft | 26 kts | 102° |
| 2026-04-20 06:37 | 12.18565 | -68.94481 | 49 ft | 10 kts | 128° |
| 2026-04-20 06:37 | 12.18495 | -68.94472 | 52 ft | 12 kts | 191° |
| 2026-04-20 06:38 | 12.18439 | -68.94485 | 49 ft | 7 kts | 196° |
| 2026-04-20 06:38 | 12.18413 | -68.94527 | 51 ft | 8 kts | 263° |
| 2026-04-20 06:38 | 12.18421 | -68.94595 | 50 ft | 11 kts | 284° |
| 2026-04-20 06:38 | 12.18442 | -68.94680 | 47 ft | 12 kts | 283° |
| 2026-04-20 06:39 | 12.18453 | -68.94734 | 50 ft | 2 kts | 281° |
| 2026-04-20 06:39 | 12.18462 | -68.94779 | 51 ft | 11 kts | 281° |
| 2026-04-20 06:39 | 12.18478 | -68.94860 | 46 ft | 12 kts | 281° |
| 2026-04-20 06:39 | 12.18489 | -68.94919 | 47 ft | 14 kts | 281° |
| 2026-04-20 06:40 | 12.18520 | -68.95055 | 46 ft | 11 kts | 282° |
| 2026-04-20 06:40 | 12.18531 | -68.95108 | 50 ft | 9 kts | 281° |
| 2026-04-20 06:40 | 12.18543 | -68.95172 | 47 ft | 10 kts | 281° |
| 2026-04-20 06:40 | 12.18556 | -68.95238 | 45 ft | 11 kts | 281° |
| 2026-04-20 06:41 | 12.18574 | -68.95325 | 46 ft | 14 kts | 284° |
| 2026-04-20 06:41 | 12.18599 | -68.95432 | 49 ft | 17 kts | 282° |
| 2026-04-20 06:41 | 12.18627 | -68.95560 | 44 ft | 20 kts | 282° |
| 2026-04-20 06:41 | 12.18648 | -68.95662 | 46 ft | 11 kts | 281° |
| 2026-04-20 06:42 | 12.18659 | -68.95717 | 49 ft | 9 kts | 281° |
| 2026-04-20 06:42 | 12.18662 | -68.95774 | 44 ft | 6 kts | 241° |
| 2026-04-20 06:42 | 12.18629 | -68.95788 | 49 ft | 7 kts | 199° |
| 2026-04-20 06:42 | 12.18580 | -68.95800 | 46 ft | 1 kts | 192° |
| 2026-04-20 06:43 | 12.18576 | -68.95801 | 49 ft | 1 kts | 193° |
| 2026-04-20 06:43 | 12.18559 | -68.95805 | 49 ft | 3 kts | 192° |
| 2026-04-20 06:43 | 12.18546 | -68.95808 | 46 ft | 0 kts | 192° |
| 2026-04-20 06:43 | 12.18544 | -68.95809 | 49 ft | 0 kts | 192° |